sensor_id;sensor_type;location;lat;lon;timestamp;temperature;humidity
33739;DHT22;20063;51.730;11.110;2023-06-24T00:01:35;15.00;99.90
33739;DHT22;20063;51.730;11.110;2023-06-24T00:04:02;15.00;99.90
33739;DHT22;20063;51.730;11.110;2023-06-24T00:06:27;14.90;99.90
33739;DHT22;20063;51.730;11.110;2023-06-24T00:08:53;14.90;99.90
33739;DHT22;20063;51.730;11.110;2023-06-24T00:11:30;14.80;99.90
33739;DHT22;20063;51.730;11.110;2023-06-24T00:13:56;14.80;99.90
33739;DHT22;20063;51.730;11.110;2023-06-24T00:16:21;14.70;99.90
33739;DHT22;20063;51.730;11.110;2023-06-24T00:18:54;14.70;99.90
33739;DHT22;20063;51.730;11.110;2023-06-24T00:21:20;14.60;99.90
33739;DHT22;20063;51.730;11.110;2023-06-24T00:23:46;14.60;99.90
33739;DHT22;20063;51.730;11.110;2023-06-24T00:26:14;14.50;99.90
33739;DHT22;20063;51.730;11.110;2023-06-24T00:28:40;14.40;99.90
33739;DHT22;20063;51.730;11.110;2023-06-24T00:31:05;14.50;99.90
33739;DHT22;20063;51.730;11.110;2023-06-24T00:33:31;14.40;99.90
33739;DHT22;20063;51.730;11.110;2023-06-24T00:36:01;14.30;99.90
33739;DHT22;20063;51.730;11.110;2023-06-24T00:38:26;14.30;99.90
33739;DHT22;20063;51.730;11.110;2023-06-24T00:40:57;14.20;99.90
33739;DHT22;20063;51.730;11.110;2023-06-24T00:43:23;14.20;99.90
33739;DHT22;20063;51.730;11.110;2023-06-24T00:45:49;14.20;99.90
33739;DHT22;20063;51.730;11.110;2023-06-24T00:48:16;14.10;99.90
33739;DHT22;20063;51.730;11.110;2023-06-24T00:50:41;14.10;99.90
33739;DHT22;20063;51.730;11.110;2023-06-24T00:53:11;14.10;99.90
33739;DHT22;20063;51.730;11.110;2023-06-24T00:55:37;14.10;99.90
33739;DHT22;20063;51.730;11.110;2023-06-24T00:58:04;14.10;99.90
33739;DHT22;20063;51.730;11.110;2023-06-24T01:00:29;14.00;99.90
33739;DHT22;20063;51.730;11.110;2023-06-24T01:02:59;14.00;99.90
33739;DHT22;20063;51.730;11.110;2023-06-24T01:05:26;14.00;99.90
33739;DHT22;20063;51.730;11.110;2023-06-24T01:07:52;14.00;99.90
33739;DHT22;20063;51.730;11.110;2023-06-24T01:10:22;13.90;99.90
33739;DHT22;20063;51.730;11.110;2023-06-24T01:12:49;13.90;99.90
33739;DHT22;20063;51.730;11.110;2023-06-24T01:15:15;13.90;99.90
33739;DHT22;20063;51.730;11.110;2023-06-24T01:20:41;13.90;99.90
33739;DHT22;20063;51.730;11.110;2023-06-24T01:23:42;13.90;99.90
33739;DHT22;20063;51.730;11.110;2023-06-24T01:32:11;13.90;99.90
33739;DHT22;20063;51.730;11.110;2023-06-24T01:34:46;14.00;99.90
33739;DHT22;20063;51.730;11.110;2023-06-24T01:37:35;14.00;99.90
33739;DHT22;20063;51.730;11.110;2023-06-24T01:40:09;14.00;99.90
33739;DHT22;20063;51.730;11.110;2023-06-24T01:42:39;14.00;99.90
33739;DHT22;20063;51.730;11.110;2023-06-24T01:45:07;14.00;99.90
33739;DHT22;20063;51.730;11.110;2023-06-24T01:47:35;14.10;99.90
33739;DHT22;20063;51.730;11.110;2023-06-24T01:50:02;14.10;99.90
33739;DHT22;20063;51.730;11.110;2023-06-24T01:52:29;14.10;99.90
33739;DHT22;20063;51.730;11.110;2023-06-24T01:54:57;14.10;99.90
33739;DHT22;20063;51.730;11.110;2023-06-24T01:57:24;14.20;99.90
33739;DHT22;20063;51.730;11.110;2023-06-24T01:59:52;14.20;99.90
33739;DHT22;20063;51.730;11.110;2023-06-24T02:02:18;14.20;99.90
33739;DHT22;20063;51.730;11.110;2023-06-24T02:04:45;14.20;99.90
33739;DHT22;20063;51.730;11.110;2023-06-24T02:07:11;14.30;99.90
33739;DHT22;20063;51.730;11.110;2023-06-24T02:09:38;14.30;99.90
33739;DHT22;20063;51.730;11.110;2023-06-24T02:12:05;14.40;99.90
33739;DHT22;20063;51.730;11.110;2023-06-24T02:14:32;14.40;99.90
33739;DHT22;20063;51.730;11.110;2023-06-24T02:17:00;14.50;99.90
33739;DHT22;20063;51.730;11.110;2023-06-24T02:19:29;14.40;99.90
33739;DHT22;20063;51.730;11.110;2023-06-24T02:21:57;14.40;99.90
33739;DHT22;20063;51.730;11.110;2023-06-24T02:24:25;14.40;99.90
33739;DHT22;20063;51.730;11.110;2023-06-24T02:26:52;14.40;99.90
33739;DHT22;20063;51.730;11.110;2023-06-24T02:29:18;14.40;99.90
33739;DHT22;20063;51.730;11.110;2023-06-24T02:31:45;14.40;99.90
33739;DHT22;20063;51.730;11.110;2023-06-24T02:34:10;14.40;99.90
33739;DHT22;20063;51.730;11.110;2023-06-24T02:36:36;14.40;99.90
33739;DHT22;20063;51.730;11.110;2023-06-24T02:39:02;14.40;99.90
33739;DHT22;20063;51.730;11.110;2023-06-24T02:41:27;14.40;99.90
33739;DHT22;20063;51.730;11.110;2023-06-24T02:43:53;14.40;99.90
33739;DHT22;20063;51.730;11.110;2023-06-24T02:46:21;14.40;99.90
33739;DHT22;20063;51.730;11.110;2023-06-24T02:48:48;14.50;99.90
33739;DHT22;20063;51.730;11.110;2023-06-24T02:51:15;14.50;99.90
33739;DHT22;20063;51.730;11.110;2023-06-24T02:53:41;14.50;99.90
33739;DHT22;20063;51.730;11.110;2023-06-24T02:56:08;14.50;99.90
33739;DHT22;20063;51.730;11.110;2023-06-24T02:58:36;14.50;99.90
33739;DHT22;20063;51.730;11.110;2023-06-24T03:01:03;14.50;99.90
33739;DHT22;20063;51.730;11.110;2023-06-24T03:03:32;14.50;99.90
33739;DHT22;20063;51.730;11.110;2023-06-24T03:05:58;14.50;99.90
33739;DHT22;20063;51.730;11.110;2023-06-24T03:08:25;14.40;99.90
33739;DHT22;20063;51.730;11.110;2023-06-24T03:10:54;14.40;99.90
33739;DHT22;20063;51.730;11.110;2023-06-24T03:13:20;14.40;99.90
33739;DHT22;20063;51.730;11.110;2023-06-24T03:15:46;14.30;99.90
33739;DHT22;20063;51.730;11.110;2023-06-24T03:18:11;14.30;99.90
33739;DHT22;20063;51.730;11.110;2023-06-24T03:20:37;14.30;99.90
33739;DHT22;20063;51.730;11.110;2023-06-24T03:23:05;14.20;99.90
33739;DHT22;20063;51.730;11.110;2023-06-24T03:25:32;14.20;99.90
33739;DHT22;20063;51.730;11.110;2023-06-24T03:27:57;14.20;99.90
33739;DHT22;20063;51.730;11.110;2023-06-24T03:30:24;14.20;99.90
33739;DHT22;20063;51.730;11.110;2023-06-24T03:32:49;14.20;99.90
33739;DHT22;20063;51.730;11.110;2023-06-24T03:35:15;14.10;99.90
33739;DHT22;20063;51.730;11.110;2023-06-24T03:37:40;14.10;99.90
33739;DHT22;20063;51.730;11.110;2023-06-24T03:40:06;14.10;99.90
33739;DHT22;20063;51.730;11.110;2023-06-24T03:42:34;14.10;99.90
33739;DHT22;20063;51.730;11.110;2023-06-24T03:45:00;14.10;99.90
33739;DHT22;20063;51.730;11.110;2023-06-24T03:47:25;14.10;99.90
33739;DHT22;20063;51.730;11.110;2023-06-24T03:49:51;14.00;99.90
33739;DHT22;20063;51.730;11.110;2023-06-24T03:52:19;14.00;99.90
33739;DHT22;20063;51.730;11.110;2023-06-24T03:54:45;14.00;99.90
33739;DHT22;20063;51.730;11.110;2023-06-24T03:57:12;14.10;99.90
33739;DHT22;20063;51.730;11.110;2023-06-24T03:59:37;14.10;99.90
33739;DHT22;20063;51.730;11.110;2023-06-24T04:02:04;14.00;99.90
33739;DHT22;20063;51.730;11.110;2023-06-24T04:04:33;14.10;99.90
33739;DHT22;20063;51.730;11.110;2023-06-24T04:06:59;14.10;99.90
33739;DHT22;20063;51.730;11.110;2023-06-24T04:09:25;14.10;99.90
33739;DHT22;20063;51.730;11.110;2023-06-24T04:11:50;14.20;99.90
33739;DHT22;20063;51.730;11.110;2023-06-24T04:14:16;14.20;99.90
33739;DHT22;20063;51.730;11.110;2023-06-24T04:16:41;14.20;99.90
33739;DHT22;20063;51.730;11.110;2023-06-24T04:19:10;14.20;99.90
33739;DHT22;20063;51.730;11.110;2023-06-24T04:21:36;14.20;99.90
33739;DHT22;20063;51.730;11.110;2023-06-24T04:24:04;14.20;99.90
33739;DHT22;20063;51.730;11.110;2023-06-24T04:26:30;14.30;99.90
33739;DHT22;20063;51.730;11.110;2023-06-24T04:28:56;14.30;99.90
33739;DHT22;20063;51.730;11.110;2023-06-24T04:31:30;14.40;99.90
33739;DHT22;20063;51.730;11.110;2023-06-24T04:33:56;14.40;99.90
33739;DHT22;20063;51.730;11.110;2023-06-24T04:36:21;14.40;99.90
33739;DHT22;20063;51.730;11.110;2023-06-24T04:38:50;14.40;99.90
33739;DHT22;20063;51.730;11.110;2023-06-24T04:41:20;14.40;99.90
33739;DHT22;20063;51.730;11.110;2023-06-24T04:43:48;14.50;99.90
33739;DHT22;20063;51.730;11.110;2023-06-24T04:46:14;14.50;99.90
33739;DHT22;20063;51.730;11.110;2023-06-24T04:48:42;14.50;99.90
33739;DHT22;20063;51.730;11.110;2023-06-24T04:51:08;14.60;99.90
33739;DHT22;20063;51.730;11.110;2023-06-24T04:53:39;14.60;99.90
33739;DHT22;20063;51.730;11.110;2023-06-24T04:56:10;14.60;99.90
33739;DHT22;20063;51.730;11.110;2023-06-24T04:58:36;14.70;99.90
33739;DHT22;20063;51.730;11.110;2023-06-24T05:01:05;14.70;99.90
33739;DHT22;20063;51.730;11.110;2023-06-24T05:03:31;14.70;99.90
33739;DHT22;20063;51.730;11.110;2023-06-24T05:05:56;14.80;99.90
33739;DHT22;20063;51.730;11.110;2023-06-24T05:08:22;14.70;99.90
33739;DHT22;20063;51.730;11.110;2023-06-24T05:10:50;14.80;99.90
33739;DHT22;20063;51.730;11.110;2023-06-24T05:13:16;14.80;99.90
33739;DHT22;20063;51.730;11.110;2023-06-24T05:15:41;14.90;99.90
33739;DHT22;20063;51.730;11.110;2023-06-24T05:18:07;14.90;99.90
33739;DHT22;20063;51.730;11.110;2023-06-24T05:20:32;14.90;99.90
33739;DHT22;20063;51.730;11.110;2023-06-24T05:22:58;15.00;99.90
33739;DHT22;20063;51.730;11.110;2023-06-24T05:25:25;15.00;99.90
33739;DHT22;20063;51.730;11.110;2023-06-24T05:28:09;15.00;99.90
33739;DHT22;20063;51.730;11.110;2023-06-24T05:30:37;15.10;99.90
33739;DHT22;20063;51.730;11.110;2023-06-24T05:33:03;15.20;99.90
33739;DHT22;20063;51.730;11.110;2023-06-24T05:35:31;15.20;99.90
33739;DHT22;20063;51.730;11.110;2023-06-24T05:37:57;15.20;99.90
33739;DHT22;20063;51.730;11.110;2023-06-24T05:40:23;15.20;99.90
33739;DHT22;20063;51.730;11.110;2023-06-24T05:42:48;15.30;99.90
33739;DHT22;20063;51.730;11.110;2023-06-24T05:45:14;15.40;99.90
33739;DHT22;20063;51.730;11.110;2023-06-24T05:47:39;15.40;99.90
33739;DHT22;20063;51.730;11.110;2023-06-24T05:50:05;15.50;99.90
33739;DHT22;20063;51.730;11.110;2023-06-24T05:52:31;15.40;99.90
33739;DHT22;20063;51.730;11.110;2023-06-24T05:54:56;15.40;99.90
33739;DHT22;20063;51.730;11.110;2023-06-24T05:57:22;15.40;99.90
33739;DHT22;20063;51.730;11.110;2023-06-24T05:59:47;15.40;99.90
33739;DHT22;20063;51.730;11.110;2023-06-24T06:02:16;15.50;99.90
33739;DHT22;20063;51.730;11.110;2023-06-24T06:04:41;15.50;99.90
33739;DHT22;20063;51.730;11.110;2023-06-24T06:07:07;15.50;99.90
33739;DHT22;20063;51.730;11.110;2023-06-24T06:09:33;15.40;99.90
33739;DHT22;20063;51.730;11.110;2023-06-24T06:11:58;15.50;99.90
33739;DHT22;20063;51.730;11.110;2023-06-24T06:14:24;15.40;99.90
33739;DHT22;20063;51.730;11.110;2023-06-24T06:16:49;15.50;99.90
33739;DHT22;20063;51.730;11.110;2023-06-24T06:19:15;15.40;99.90
33739;DHT22;20063;51.730;11.110;2023-06-24T06:21:40;15.50;99.90
33739;DHT22;20063;51.730;11.110;2023-06-24T06:24:06;15.50;99.90
33739;DHT22;20063;51.730;11.110;2023-06-24T06:26:32;15.60;99.90
33739;DHT22;20063;51.730;11.110;2023-06-24T06:28:57;15.60;99.90
33739;DHT22;20063;51.730;11.110;2023-06-24T06:31:23;15.70;99.90
33739;DHT22;20063;51.730;11.110;2023-06-24T06:33:51;15.80;99.90
33739;DHT22;20063;51.730;11.110;2023-06-24T06:36:16;15.80;99.90
33739;DHT22;20063;51.730;11.110;2023-06-24T06:38:42;15.90;99.90
33739;DHT22;20063;51.730;11.110;2023-06-24T06:41:08;15.80;99.90
33739;DHT22;20063;51.730;11.110;2023-06-24T06:43:34;16.00;99.90
33739;DHT22;20063;51.730;11.110;2023-06-24T06:45:59;16.00;99.90
33739;DHT22;20063;51.730;11.110;2023-06-24T06:48:25;16.10;99.90
33739;DHT22;20063;51.730;11.110;2023-06-24T06:50:50;16.20;99.90
33739;DHT22;20063;51.730;11.110;2023-06-24T06:53:17;16.30;99.90
33739;DHT22;20063;51.730;11.110;2023-06-24T06:55:43;16.30;99.90
33739;DHT22;20063;51.730;11.110;2023-06-24T06:58:09;16.40;99.90
33739;DHT22;20063;51.730;11.110;2023-06-24T07:00:34;16.40;99.90
33739;DHT22;20063;51.730;11.110;2023-06-24T07:02:59;16.40;99.90
33739;DHT22;20063;51.730;11.110;2023-06-24T07:05:25;16.40;99.90
33739;DHT22;20063;51.730;11.110;2023-06-24T07:07:50;16.40;99.90
33739;DHT22;20063;51.730;11.110;2023-06-24T07:10:16;16.40;99.90
33739;DHT22;20063;51.730;11.110;2023-06-24T07:12:45;16.40;99.90
33739;DHT22;20063;51.730;11.110;2023-06-24T07:15:10;16.40;99.90
33739;DHT22;20063;51.730;11.110;2023-06-24T07:17:36;16.40;99.90
33739;DHT22;20063;51.730;11.110;2023-06-24T07:20:01;16.50;99.90
33739;DHT22;20063;51.730;11.110;2023-06-24T07:22:27;16.50;99.90
33739;DHT22;20063;51.730;11.110;2023-06-24T07:24:53;16.60;99.90
33739;DHT22;20063;51.730;11.110;2023-06-24T07:27:18;16.60;99.90
33739;DHT22;20063;51.730;11.110;2023-06-24T07:29:44;16.70;99.90
33739;DHT22;20063;51.730;11.110;2023-06-24T07:32:09;16.70;99.90
33739;DHT22;20063;51.730;11.110;2023-06-24T07:34:35;16.70;99.90
33739;DHT22;20063;51.730;11.110;2023-06-24T07:37:00;16.70;99.90
33739;DHT22;20063;51.730;11.110;2023-06-24T07:39:26;16.70;99.90
33739;DHT22;20063;51.730;11.110;2023-06-24T07:41:51;16.70;99.90
33739;DHT22;20063;51.730;11.110;2023-06-24T07:44:17;16.70;99.90
33739;DHT22;20063;51.730;11.110;2023-06-24T07:46:44;16.80;99.90
33739;DHT22;20063;51.730;11.110;2023-06-24T07:49:10;16.80;99.90
33739;DHT22;20063;51.730;11.110;2023-06-24T07:51:35;16.90;99.90
33739;DHT22;20063;51.730;11.110;2023-06-24T07:54:01;16.90;99.90
33739;DHT22;20063;51.730;11.110;2023-06-24T07:56:26;16.90;99.90
33739;DHT22;20063;51.730;11.110;2023-06-24T07:58:53;17.00;99.90
33739;DHT22;20063;51.730;11.110;2023-06-24T08:01:18;17.00;99.90
33739;DHT22;20063;51.730;11.110;2023-06-24T08:03:43;17.00;99.90
33739;DHT22;20063;51.730;11.110;2023-06-24T08:06:09;17.10;99.90
33739;DHT22;20063;51.730;11.110;2023-06-24T08:08:34;17.10;99.90
33739;DHT22;20063;51.730;11.110;2023-06-24T08:11:02;17.20;99.90
33739;DHT22;20063;51.730;11.110;2023-06-24T08:13:27;17.30;99.90
33739;DHT22;20063;51.730;11.110;2023-06-24T08:15:54;17.30;99.90
33739;DHT22;20063;51.730;11.110;2023-06-24T08:18:19;17.40;99.90
33739;DHT22;20063;51.730;11.110;2023-06-24T08:20:45;17.40;99.90
33739;DHT22;20063;51.730;11.110;2023-06-24T08:23:10;17.40;99.90
33739;DHT22;20063;51.730;11.110;2023-06-24T08:25:36;17.40;99.90
33739;DHT22;20063;51.730;11.110;2023-06-24T08:28:02;17.40;99.90
33739;DHT22;20063;51.730;11.110;2023-06-24T08:30:27;17.40;99.90
33739;DHT22;20063;51.730;11.110;2023-06-24T08:32:53;17.50;99.90
33739;DHT22;20063;51.730;11.110;2023-06-24T08:35:18;17.50;99.90
33739;DHT22;20063;51.730;11.110;2023-06-24T08:37:44;17.60;99.90
33739;DHT22;20063;51.730;11.110;2023-06-24T08:40:11;17.70;99.90
33739;DHT22;20063;51.730;11.110;2023-06-24T08:42:36;17.70;99.90
33739;DHT22;20063;51.730;11.110;2023-06-24T08:45:02;17.80;99.90
33739;DHT22;20063;51.730;11.110;2023-06-24T08:47:28;17.90;99.90
33739;DHT22;20063;51.730;11.110;2023-06-24T08:50:06;17.90;99.90
33739;DHT22;20063;51.730;11.110;2023-06-24T08:52:35;17.90;99.90
33739;DHT22;20063;51.730;11.110;2023-06-24T08:55:02;17.90;99.90
33739;DHT22;20063;51.730;11.110;2023-06-24T08:57:29;17.90;99.90
33739;DHT22;20063;51.730;11.110;2023-06-24T08:59:55;18.00;99.90
33739;DHT22;20063;51.730;11.110;2023-06-24T09:02:20;18.00;99.90
33739;DHT22;20063;51.730;11.110;2023-06-24T09:04:46;18.10;99.90
33739;DHT22;20063;51.730;11.110;2023-06-24T09:07:11;18.20;99.90
33739;DHT22;20063;51.730;11.110;2023-06-24T09:09:44;18.30;99.90
33739;DHT22;20063;51.730;11.110;2023-06-24T09:12:12;18.30;99.90
33739;DHT22;20063;51.730;11.110;2023-06-24T09:14:38;18.40;99.90
33739;DHT22;20063;51.730;11.110;2023-06-24T09:17:04;18.50;99.90
33739;DHT22;20063;51.730;11.110;2023-06-24T09:19:30;18.60;99.90
33739;DHT22;20063;51.730;11.110;2023-06-24T09:22:06;18.60;99.90
33739;DHT22;20063;51.730;11.110;2023-06-24T09:24:33;18.70;99.90
33739;DHT22;20063;51.730;11.110;2023-06-24T09:26:59;18.70;99.90
33739;DHT22;20063;51.730;11.110;2023-06-24T09:29:26;18.80;99.90
33739;DHT22;20063;51.730;11.110;2023-06-24T09:31:52;18.90;99.90
33739;DHT22;20063;51.730;11.110;2023-06-24T09:34:19;19.00;99.90
33739;DHT22;20063;51.730;11.110;2023-06-24T09:36:47;19.10;99.90
33739;DHT22;20063;51.730;11.110;2023-06-24T09:39:16;19.10;99.90
33739;DHT22;20063;51.730;11.110;2023-06-24T09:41:41;19.10;99.90
33739;DHT22;20063;51.730;11.110;2023-06-24T09:44:11;19.10;99.90
33739;DHT22;20063;51.730;11.110;2023-06-24T09:46:37;19.20;99.90
33739;DHT22;20063;51.730;11.110;2023-06-24T09:49:06;19.20;99.90
33739;DHT22;20063;51.730;11.110;2023-06-24T09:51:43;19.30;99.90
33739;DHT22;20063;51.730;11.110;2023-06-24T09:54:12;19.30;99.90
33739;DHT22;20063;51.730;11.110;2023-06-24T09:56:42;19.30;99.90
33739;DHT22;20063;51.730;11.110;2023-06-24T09:59:09;19.30;99.90
33739;DHT22;20063;51.730;11.110;2023-06-24T10:01:39;19.40;99.90
33739;DHT22;20063;51.730;11.110;2023-06-24T10:04:06;19.50;99.90
33739;DHT22;20063;51.730;11.110;2023-06-24T10:06:33;19.50;99.90
33739;DHT22;20063;51.730;11.110;2023-06-24T10:09:00;19.50;99.90
33739;DHT22;20063;51.730;11.110;2023-06-24T10:11:26;19.70;99.90
33739;DHT22;20063;51.730;11.110;2023-06-24T10:13:52;19.70;99.90
33739;DHT22;20063;51.730;11.110;2023-06-24T10:16:18;19.80;99.90
33739;DHT22;20063;51.730;11.110;2023-06-24T10:18:45;19.80;99.90
33739;DHT22;20063;51.730;11.110;2023-06-24T10:21:11;19.80;99.90
33739;DHT22;20063;51.730;11.110;2023-06-24T10:23:53;19.90;99.90
33739;DHT22;20063;51.730;11.110;2023-06-24T10:26:26;20.00;99.90
33739;DHT22;20063;51.730;11.110;2023-06-24T10:37:00;20.20;99.90
33739;DHT22;20063;51.730;11.110;2023-06-24T10:39:50;20.10;99.90
33739;DHT22;20063;51.730;11.110;2023-06-24T10:47:37;20.30;99.90
33739;DHT22;20063;51.730;11.110;2023-06-24T10:50:04;20.50;99.90
33739;DHT22;20063;51.730;11.110;2023-06-24T10:52:30;20.60;99.90
33739;DHT22;20063;51.730;11.110;2023-06-24T10:54:57;20.60;99.90
33739;DHT22;20063;51.730;11.110;2023-06-24T10:57:27;20.60;99.90
33739;DHT22;20063;51.730;11.110;2023-06-24T10:59:55;20.60;99.90
33739;DHT22;20063;51.730;11.110;2023-06-24T11:02:30;20.60;99.90
33739;DHT22;20063;51.730;11.110;2023-06-24T11:05:00;20.60;99.90
33739;DHT22;20063;51.730;11.110;2023-06-24T11:07:31;20.60;99.90
33739;DHT22;20063;51.730;11.110;2023-06-24T11:10:02;20.60;99.90
33739;DHT22;20063;51.730;11.110;2023-06-24T11:12:33;20.70;99.90
33739;DHT22;20063;51.730;11.110;2023-06-24T11:15:19;20.80;99.90
33739;DHT22;20063;51.730;11.110;2023-06-24T11:17:45;20.80;99.90
33739;DHT22;20063;51.730;11.110;2023-06-24T11:20:14;21.00;99.90
33739;DHT22;20063;51.730;11.110;2023-06-24T11:22:40;20.90;99.90
33739;DHT22;20063;51.730;11.110;2023-06-24T11:25:06;20.90;99.90
33739;DHT22;20063;51.730;11.110;2023-06-24T11:27:31;20.90;99.90
33739;DHT22;20063;51.730;11.110;2023-06-24T11:30:00;20.90;99.90
33739;DHT22;20063;51.730;11.110;2023-06-24T11:32:36;20.90;99.90
33739;DHT22;20063;51.730;11.110;2023-06-24T11:35:03;20.90;99.90
33739;DHT22;20063;51.730;11.110;2023-06-24T11:37:32;21.00;99.90
33739;DHT22;20063;51.730;11.110;2023-06-24T11:40:03;21.20;99.90
33739;DHT22;20063;51.730;11.110;2023-06-24T11:42:30;21.20;99.90
33739;DHT22;20063;51.730;11.110;2023-06-24T11:45:03;21.20;99.90
33739;DHT22;20063;51.730;11.110;2023-06-24T11:47:35;21.20;99.90
33739;DHT22;20063;51.730;11.110;2023-06-24T11:50:03;21.20;99.90
33739;DHT22;20063;51.730;11.110;2023-06-24T11:55:01;21.50;99.90
33739;DHT22;20063;51.730;11.110;2023-06-24T11:57:56;21.40;99.90
33739;DHT22;20063;51.730;11.110;2023-06-24T12:00:22;21.40;99.90
33739;DHT22;20063;51.730;11.110;2023-06-24T12:02:50;21.40;99.90
33739;DHT22;20063;51.730;11.110;2023-06-24T12:05:30;21.30;99.90
33739;DHT22;20063;51.730;11.110;2023-06-24T12:07:58;21.40;99.90
33739;DHT22;20063;51.730;11.110;2023-06-24T12:10:23;21.50;99.90
33739;DHT22;20063;51.730;11.110;2023-06-24T12:12:49;21.60;99.90
33739;DHT22;20063;51.730;11.110;2023-06-24T12:15:15;21.60;99.90
33739;DHT22;20063;51.730;11.110;2023-06-24T12:17:40;21.50;99.90
33739;DHT22;20063;51.730;11.110;2023-06-24T12:20:06;21.60;99.90
33739;DHT22;20063;51.730;11.110;2023-06-24T12:22:37;21.70;99.90
33739;DHT22;20063;51.730;11.110;2023-06-24T12:25:03;21.70;99.90
33739;DHT22;20063;51.730;11.110;2023-06-24T12:27:29;21.70;99.90
33739;DHT22;20063;51.730;11.110;2023-06-24T12:29:54;21.70;99.90
33739;DHT22;20063;51.730;11.110;2023-06-24T12:32:20;21.70;99.90
33739;DHT22;20063;51.730;11.110;2023-06-24T12:34:45;21.70;99.90
33739;DHT22;20063;51.730;11.110;2023-06-24T12:37:11;21.70;99.90
33739;DHT22;20063;51.730;11.110;2023-06-24T12:39:36;21.70;99.90
33739;DHT22;20063;51.730;11.110;2023-06-24T12:42:02;21.70;99.90
33739;DHT22;20063;51.730;11.110;2023-06-24T12:44:27;21.70;99.90
33739;DHT22;20063;51.730;11.110;2023-06-24T12:46:53;21.70;99.90
33739;DHT22;20063;51.730;11.110;2023-06-24T12:49:18;21.70;99.90
33739;DHT22;20063;51.730;11.110;2023-06-24T12:51:44;21.70;99.90
33739;DHT22;20063;51.730;11.110;2023-06-24T12:54:09;21.90;99.90
33739;DHT22;20063;51.730;11.110;2023-06-24T12:56:35;21.90;99.90
33739;DHT22;20063;51.730;11.110;2023-06-24T12:59:01;22.10;99.90
33739;DHT22;20063;51.730;11.110;2023-06-24T13:01:26;22.00;99.90
33739;DHT22;20063;51.730;11.110;2023-06-24T13:03:52;22.00;99.90
33739;DHT22;20063;51.730;11.110;2023-06-24T13:06:17;22.10;99.90
33739;DHT22;20063;51.730;11.110;2023-06-24T13:08:43;22.00;99.90
33739;DHT22;20063;51.730;11.110;2023-06-24T13:11:09;22.20;99.90
33739;DHT22;20063;51.730;11.110;2023-06-24T13:13:35;22.40;99.90
33739;DHT22;20063;51.730;11.110;2023-06-24T13:16:01;22.60;99.90
33739;DHT22;20063;51.730;11.110;2023-06-24T13:18:27;22.60;99.90
33739;DHT22;20063;51.730;11.110;2023-06-24T13:20:52;22.60;99.90
33739;DHT22;20063;51.730;11.110;2023-06-24T13:23:18;22.60;99.90
33739;DHT22;20063;51.730;11.110;2023-06-24T13:25:43;22.60;99.90
33739;DHT22;20063;51.730;11.110;2023-06-24T13:28:09;22.70;99.90
33739;DHT22;20063;51.730;11.110;2023-06-24T13:30:37;22.70;99.90
33739;DHT22;20063;51.730;11.110;2023-06-24T13:33:03;22.80;99.90
33739;DHT22;20063;51.730;11.110;2023-06-24T13:35:29;22.90;99.90
33739;DHT22;20063;51.730;11.110;2023-06-24T13:37:54;23.00;99.90
33739;DHT22;20063;51.730;11.110;2023-06-24T13:40:20;23.00;99.90
33739;DHT22;20063;51.730;11.110;2023-06-24T13:42:45;22.90;99.90
33739;DHT22;20063;51.730;11.110;2023-06-24T13:45:11;22.90;99.90
33739;DHT22;20063;51.730;11.110;2023-06-24T13:47:37;23.00;99.90
33739;DHT22;20063;51.730;11.110;2023-06-24T13:50:03;23.00;99.90
33739;DHT22;20063;51.730;11.110;2023-06-24T13:52:29;22.90;99.90
33739;DHT22;20063;51.730;11.110;2023-06-24T13:54:54;22.90;99.90
33739;DHT22;20063;51.730;11.110;2023-06-24T13:57:20;22.80;99.90
33739;DHT22;20063;51.730;11.110;2023-06-24T13:59:45;22.70;99.90
33739;DHT22;20063;51.730;11.110;2023-06-24T14:02:11;22.80;99.90
33739;DHT22;20063;51.730;11.110;2023-06-24T14:04:37;22.90;99.90
33739;DHT22;20063;51.730;11.110;2023-06-24T14:07:06;23.00;99.90
33739;DHT22;20063;51.730;11.110;2023-06-24T14:09:32;23.20;99.90
33739;DHT22;20063;51.730;11.110;2023-06-24T14:11:58;23.10;99.90
33739;DHT22;20063;51.730;11.110;2023-06-24T14:14:24;23.10;99.90
33739;DHT22;20063;51.730;11.110;2023-06-24T14:16:52;23.00;99.90
33739;DHT22;20063;51.730;11.110;2023-06-24T14:19:17;23.20;99.90
33739;DHT22;20063;51.730;11.110;2023-06-24T14:21:44;23.20;99.90
33739;DHT22;20063;51.730;11.110;2023-06-24T14:24:10;23.30;99.90
33739;DHT22;20063;51.730;11.110;2023-06-24T14:26:36;23.40;99.90
33739;DHT22;20063;51.730;11.110;2023-06-24T14:29:03;23.60;99.90
33739;DHT22;20063;51.730;11.110;2023-06-24T14:31:28;23.70;99.90
33739;DHT22;20063;51.730;11.110;2023-06-24T14:33:54;23.70;99.90
33739;DHT22;20063;51.730;11.110;2023-06-24T14:36:19;23.60;99.90
33739;DHT22;20063;51.730;11.110;2023-06-24T14:38:45;23.60;99.90
33739;DHT22;20063;51.730;11.110;2023-06-24T14:41:10;23.60;99.90
33739;DHT22;20063;51.730;11.110;2023-06-24T14:43:36;23.50;99.90
33739;DHT22;20063;51.730;11.110;2023-06-24T14:46:02;23.40;99.90
33739;DHT22;20063;51.730;11.110;2023-06-24T14:48:27;23.30;99.90
33739;DHT22;20063;51.730;11.110;2023-06-24T14:50:53;23.30;99.90
33739;DHT22;20063;51.730;11.110;2023-06-24T14:53:19;23.30;99.90
33739;DHT22;20063;51.730;11.110;2023-06-24T14:55:45;23.30;99.90
33739;DHT22;20063;51.730;11.110;2023-06-24T14:58:11;23.30;99.90
33739;DHT22;20063;51.730;11.110;2023-06-24T15:00:36;23.30;99.90
33739;DHT22;20063;51.730;11.110;2023-06-24T15:03:02;23.30;99.90
33739;DHT22;20063;51.730;11.110;2023-06-24T15:05:27;23.30;99.90
33739;DHT22;20063;51.730;11.110;2023-06-24T15:07:53;23.30;99.90
33739;DHT22;20063;51.730;11.110;2023-06-24T15:10:18;23.20;99.90
33739;DHT22;20063;51.730;11.110;2023-06-24T15:12:44;23.10;99.90
33739;DHT22;20063;51.730;11.110;2023-06-24T15:15:09;23.10;99.90
33739;DHT22;20063;51.730;11.110;2023-06-24T15:17:35;23.00;99.90
33739;DHT22;20063;51.730;11.110;2023-06-24T15:20:08;23.00;99.90
33739;DHT22;20063;51.730;11.110;2023-06-24T15:22:37;23.00;99.90
33739;DHT22;20063;51.730;11.110;2023-06-24T15:25:03;23.10;99.90
33739;DHT22;20063;51.730;11.110;2023-06-24T15:27:28;23.20;99.90
33739;DHT22;20063;51.730;11.110;2023-06-24T15:29:54;23.20;99.90
33739;DHT22;20063;51.730;11.110;2023-06-24T15:32:20;23.10;99.90
33739;DHT22;20063;51.730;11.110;2023-06-24T15:34:46;23.10;99.90
33739;DHT22;20063;51.730;11.110;2023-06-24T15:37:12;23.10;99.90
33739;DHT22;20063;51.730;11.110;2023-06-24T15:39:40;23.10;99.90